Sierra Vista, AZ (85650)

7:16 AM MST on September 22, 2014 (GMT -0700)
Canyon De Flores -Cochise County (N0NBH) | Change Station
CLOSE
Current Station
Personal Weather Station
Location: Sierra Vista, AZ
Elevation: 4645 ft
Nearby Weather Stations

Elev 4645 ft 31.50 °N, 110.26 °W | Updated 7 minutes ago

Mostly Cloudy
Mostly Cloudy
72.8 °F
Feels Like 74 °F
N
0.0
Wind Variable Wind from WNW
Gusts 0.0 mph

Today
High -- | Low -- °F
--% Chance of Precip.
Yesterday
High -- | Low -- °F
Precip. -- in
6:09 AM 6:17 PM
Waning Crescent, 3% visible
Pressure 30.07 in
Visibility 10.0 miles
Clouds Few 7500 ft
Scattered Clouds 10000 ft
Mostly Cloudy 29000 ft
Heat Index 74 °F
Dew Point 64 °F
Humidity 74%
Rainfall 0.00 in
Snow Depth 1 in , 0 in , 0 in
UV 0 out of 12
Pollen 7.80 out of 12
Air Quality Not available.
Flu Activity Not available.
METAR KFHU 221355Z 19003KT 10SM FEW075 SCT100 BKN290 17/17 A3020 RMK SLP181

More Conditions Fewer Conditions

Pressure 30.07 in
Visibility 10.0 miles
Clouds Few 7500 ft
Scattered Clouds 10000 ft
Mostly Cloudy 29000 ft
Heat Index 74 °F
Dew Point 64 °F
Humidity 74%
Rainfall 0.00 in
Snow Depth 1 in , 0 in , 0 in
UV 0 out of 12
Pollen 7.80 out of 12
Air Quality Not available.
Flu Activity Not available.
METAR KFHU 221355Z 19003KT 10SM FEW075 SCT100 BKN290 17/17 A3020 RMK SLP181

More Conditions Fewer Conditions

10-Day Weather Forecast

Almanac

Astronomy

Sep. 22, 2014 Rise Set
Actual Time 6:09 AM MST 6:17 PM MST
Civil Twilight 5:45 AM MST 6:41 PM MST
Nautical Twilight 5:16 AM MST 7:10 PM MST
Astronomical Twilight 4:48 AM MST 7:38 PM MST
Moon 4:45 AM MST 5:24 PM MST
Length of Visible Light 12h 56m
Length of Day
12h 08m
Tomorrow will be 1m 54s shorter.
Waning Crescent, 3% of the Moon is Illuminated
Today
Waning Crescent
Sep 24
New
Oct 1
First Quarter
Oct 8
Full
Oct 15
Last Quarter

Today's Extremes

State Highs State Lows

Community

WunderPhotos

Upload Photos

1,755,444 photos uploaded!

WunderBlogs® & News

By Dr. Jeff Masters
Director of Meteorology, Weather Underground
By Kari Strenfel
Meteorologist, Weather Underground
By Christopher C. Burt
Weather Historian, Weather Underground
September 22, 2014
September 22, 2014
September 22, 2014

Nearby

Snow Depth

Station Depth Elevation
Maverick Fork 1 in 9200 ft
Coronado Trail 0 in 8400 ft
Wildcat 0 in 7850 ft
Snowslide Canyon 0 in 9730 ft
Promontory 0 in 7930 ft

Earthquake Activity

City Distance Mag. Time & Date
No recent earthquake activity has been reported nearby.
Minimum magnitude displayed is 2.5.

Coastal Water Temperatures

Place Temperature
No Stations Reporting

Nearby Weather Stations